sensor_id;sensor_type;location;lat;lon;timestamp;P1;durP1;ratioP1;P2;durP2;ratioP2
79646;SDS011;69119;41.718;21.786;2023-04-30T00:02:26;24.88;;;17.92;;
79646;SDS011;69119;41.718;21.786;2023-04-30T00:04:52;26.25;;;18.33;;
79646;SDS011;69119;41.718;21.786;2023-04-30T00:07:18;26.13;;;18.80;;
79646;SDS011;69119;41.718;21.786;2023-04-30T00:09:44;26.50;;;18.80;;
79646;SDS011;69119;41.718;21.786;2023-04-30T00:12:11;26.13;;;18.92;;
79646;SDS011;69119;41.718;21.786;2023-04-30T00:14:37;28.70;;;19.25;;
79646;SDS011;69119;41.718;21.786;2023-04-30T00:17:03;31.05;;;19.27;;
79646;SDS011;69119;41.718;21.786;2023-04-30T00:19:29;30.13;;;19.73;;
79646;SDS011;69119;41.718;21.786;2023-04-30T00:21:55;30.55;;;20.60;;
79646;SDS011;69119;41.718;21.786;2023-04-30T00:24:21;28.15;;;19.30;;
79646;SDS011;69119;41.718;21.786;2023-04-30T00:26:47;29.10;;;18.60;;
79646;SDS011;69119;41.718;21.786;2023-04-30T00:29:13;29.63;;;18.52;;
79646;SDS011;69119;41.718;21.786;2023-04-30T00:31:39;26.92;;;18.35;;
79646;SDS011;69119;41.718;21.786;2023-04-30T00:34:05;28.65;;;19.95;;
79646;SDS011;69119;41.718;21.786;2023-04-30T00:36:31;24.80;;;17.67;;
79646;SDS011;69119;41.718;21.786;2023-04-30T00:38:58;23.90;;;17.27;;
79646;SDS011;69119;41.718;21.786;2023-04-30T00:41:24;21.83;;;17.27;;
79646;SDS011;69119;41.718;21.786;2023-04-30T00:43:50;22.77;;;15.98;;
79646;SDS011;69119;41.718;21.786;2023-04-30T00:46:16;24.15;;;16.48;;
79646;SDS011;69119;41.718;21.786;2023-04-30T00:48:42;21.98;;;15.60;;
79646;SDS011;69119;41.718;21.786;2023-04-30T00:51:08;23.58;;;17.05;;
79646;SDS011;69119;41.718;21.786;2023-04-30T00:53:35;21.58;;;16.42;;
79646;SDS011;69119;41.718;21.786;2023-04-30T00:56:02;20.67;;;14.25;;
79646;SDS011;69119;41.718;21.786;2023-04-30T00:58:29;19.08;;;14.88;;
79646;SDS011;69119;41.718;21.786;2023-04-30T01:00:55;21.15;;;15.38;;
79646;SDS011;69119;41.718;21.786;2023-04-30T01:03:21;21.52;;;14.57;;
79646;SDS011;69119;41.718;21.786;2023-04-30T01:05:48;21.85;;;16.48;;
79646;SDS011;69119;41.718;21.786;2023-04-30T01:08:14;21.92;;;15.85;;
79646;SDS011;69119;41.718;21.786;2023-04-30T01:10:42;25.55;;;17.65;;
79646;SDS011;69119;41.718;21.786;2023-04-30T01:13:18;21.77;;;16.30;;
79646;SDS011;69119;41.718;21.786;2023-04-30T01:15:59;26.25;;;17.33;;
79646;SDS011;69119;41.718;21.786;2023-04-30T01:18:30;25.85;;;16.45;;
79646;SDS011;69119;41.718;21.786;2023-04-30T01:21:00;23.20;;;13.38;;
79646;SDS011;69119;41.718;21.786;2023-04-30T01:28:35;21.98;;;15.15;;
79646;SDS011;69119;41.718;21.786;2023-04-30T01:31:01;19.30;;;14.68;;
79646;SDS011;69119;41.718;21.786;2023-04-30T01:33:27;19.95;;;14.82;;
79646;SDS011;69119;41.718;21.786;2023-04-30T01:38:23;22.10;;;15.85;;
79646;SDS011;69119;41.718;21.786;2023-04-30T01:40:53;24.83;;;16.67;;
79646;SDS011;69119;41.718;21.786;2023-04-30T01:46:16;20.10;;;15.50;;
79646;SDS011;69119;41.718;21.786;2023-04-30T01:53:51;25.50;;;15.45;;
79646;SDS011;69119;41.718;21.786;2023-04-30T01:56:27;23.17;;;16.23;;
79646;SDS011;69119;41.718;21.786;2023-04-30T01:58:56;23.73;;;16.48;;
79646;SDS011;69119;41.718;21.786;2023-04-30T02:01:24;25.52;;;17.13;;
79646;SDS011;69119;41.718;21.786;2023-04-30T02:03:51;26.25;;;17.42;;
79646;SDS011;69119;41.718;21.786;2023-04-30T02:06:17;27.05;;;18.55;;
79646;SDS011;69119;41.718;21.786;2023-04-30T02:08:43;23.35;;;15.52;;
79646;SDS011;69119;41.718;21.786;2023-04-30T02:11:09;24.65;;;16.08;;
79646;SDS011;69119;41.718;21.786;2023-04-30T02:13:35;22.77;;;16.45;;
79646;SDS011;69119;41.718;21.786;2023-04-30T02:16:01;27.75;;;19.52;;
79646;SDS011;69119;41.718;21.786;2023-04-30T02:18:28;25.02;;;17.50;;
79646;SDS011;69119;41.718;21.786;2023-04-30T02:20:54;25.90;;;19.35;;
79646;SDS011;69119;41.718;21.786;2023-04-30T02:23:20;27.60;;;18.58;;
79646;SDS011;69119;41.718;21.786;2023-04-30T02:25:46;25.60;;;16.67;;
79646;SDS011;69119;41.718;21.786;2023-04-30T02:28:12;25.30;;;18.73;;
79646;SDS011;69119;41.718;21.786;2023-04-30T02:30:38;21.05;;;14.82;;
79646;SDS011;69119;41.718;21.786;2023-04-30T02:33:04;21.80;;;16.55;;
79646;SDS011;69119;41.718;21.786;2023-04-30T02:35:31;22.42;;;15.13;;
79646;SDS011;69119;41.718;21.786;2023-04-30T02:37:57;18.63;;;14.20;;
79646;SDS011;69119;41.718;21.786;2023-04-30T02:40:23;19.10;;;14.27;;
79646;SDS011;69119;41.718;21.786;2023-04-30T02:42:49;21.45;;;15.82;;
79646;SDS011;69119;41.718;21.786;2023-04-30T02:45:18;19.35;;;14.82;;
79646;SDS011;69119;41.718;21.786;2023-04-30T02:47:44;21.02;;;15.05;;
79646;SDS011;69119;41.718;21.786;2023-04-30T02:50:10;22.42;;;15.52;;
79646;SDS011;69119;41.718;21.786;2023-04-30T02:52:36;23.63;;;16.67;;
79646;SDS011;69119;41.718;21.786;2023-04-30T02:55:02;25.88;;;17.85;;
79646;SDS011;69119;41.718;21.786;2023-04-30T02:57:28;24.00;;;16.95;;
79646;SDS011;69119;41.718;21.786;2023-04-30T02:59:54;21.25;;;14.65;;
79646;SDS011;69119;41.718;21.786;2023-04-30T03:02:20;19.65;;;15.32;;
79646;SDS011;69119;41.718;21.786;2023-04-30T03:04:47;27.35;;;18.65;;
79646;SDS011;69119;41.718;21.786;2023-04-30T03:07:14;22.95;;;16.02;;
79646;SDS011;69119;41.718;21.786;2023-04-30T03:09:40;23.85;;;14.90;;
79646;SDS011;69119;41.718;21.786;2023-04-30T03:12:06;24.30;;;17.92;;
79646;SDS011;69119;41.718;21.786;2023-04-30T03:14:32;20.48;;;13.88;;
79646;SDS011;69119;41.718;21.786;2023-04-30T03:16:58;22.05;;;15.73;;
79646;SDS011;69119;41.718;21.786;2023-04-30T03:19:24;20.65;;;15.05;;
79646;SDS011;69119;41.718;21.786;2023-04-30T03:21:50;22.40;;;16.48;;
79646;SDS011;69119;41.718;21.786;2023-04-30T03:24:17;22.20;;;16.23;;
79646;SDS011;69119;41.718;21.786;2023-04-30T03:29:09;27.13;;;20.98;;
79646;SDS011;69119;41.718;21.786;2023-04-30T03:31:35;24.40;;;19.95;;
79646;SDS011;69119;41.718;21.786;2023-04-30T03:34:01;22.20;;;18.50;;
79646;SDS011;69119;41.718;21.786;2023-04-30T03:36:27;20.08;;;14.73;;
79646;SDS011;69119;41.718;21.786;2023-04-30T03:38:53;21.52;;;15.95;;
79646;SDS011;69119;41.718;21.786;2023-04-30T03:41:19;20.15;;;14.85;;
79646;SDS011;69119;41.718;21.786;2023-04-30T03:43:45;20.65;;;15.43;;
79646;SDS011;69119;41.718;21.786;2023-04-30T03:46:11;21.77;;;16.30;;
79646;SDS011;69119;41.718;21.786;2023-04-30T03:48:37;19.17;;;13.43;;
79646;SDS011;69119;41.718;21.786;2023-04-30T03:51:03;21.73;;;15.70;;
79646;SDS011;69119;41.718;21.786;2023-04-30T03:53:30;20.05;;;14.32;;
79646;SDS011;69119;41.718;21.786;2023-04-30T03:55:56;19.92;;;13.80;;
79646;SDS011;69119;41.718;21.786;2023-04-30T03:58:22;21.48;;;15.38;;
79646;SDS011;69119;41.718;21.786;2023-04-30T04:00:48;19.67;;;14.32;;
79646;SDS011;69119;41.718;21.786;2023-04-30T04:03:15;20.02;;;14.52;;
79646;SDS011;69119;41.718;21.786;2023-04-30T04:05:41;28.17;;;15.32;;
79646;SDS011;69119;41.718;21.786;2023-04-30T04:08:07;21.38;;;14.88;;
79646;SDS011;69119;41.718;21.786;2023-04-30T04:10:33;18.70;;;14.15;;
79646;SDS011;69119;41.718;21.786;2023-04-30T04:13:00;22.52;;;18.35;;
79646;SDS011;69119;41.718;21.786;2023-04-30T04:15:26;25.23;;;16.92;;
79646;SDS011;69119;41.718;21.786;2023-04-30T04:17:52;31.55;;;21.13;;
79646;SDS011;69119;41.718;21.786;2023-04-30T04:20:18;29.88;;;21.55;;
79646;SDS011;69119;41.718;21.786;2023-04-30T04:22:44;25.75;;;18.42;;
79646;SDS011;69119;41.718;21.786;2023-04-30T04:25:10;20.75;;;15.25;;
79646;SDS011;69119;41.718;21.786;2023-04-30T04:27:37;22.95;;;19.38;;
79646;SDS011;69119;41.718;21.786;2023-04-30T04:30:04;19.45;;;15.50;;
79646;SDS011;69119;41.718;21.786;2023-04-30T04:32:30;23.33;;;16.48;;
79646;SDS011;69119;41.718;21.786;2023-04-30T04:34:56;19.80;;;14.23;;
79646;SDS011;69119;41.718;21.786;2023-04-30T04:37:23;19.65;;;15.50;;
79646;SDS011;69119;41.718;21.786;2023-04-30T04:39:49;17.90;;;12.20;;
79646;SDS011;69119;41.718;21.786;2023-04-30T04:42:15;19.10;;;11.85;;
79646;SDS011;69119;41.718;21.786;2023-04-30T04:47:08;15.18;;;9.48;;
79646;SDS011;69119;41.718;21.786;2023-04-30T04:49:34;15.23;;;10.27;;
79646;SDS011;69119;41.718;21.786;2023-04-30T04:52:00;17.23;;;10.88;;
79646;SDS011;69119;41.718;21.786;2023-04-30T04:54:26;18.27;;;13.38;;
79646;SDS011;69119;41.718;21.786;2023-04-30T04:56:53;20.70;;;13.50;;
79646;SDS011;69119;41.718;21.786;2023-04-30T04:59:19;17.40;;;14.52;;
79646;SDS011;69119;41.718;21.786;2023-04-30T05:01:46;17.55;;;13.52;;
79646;SDS011;69119;41.718;21.786;2023-04-30T05:04:12;15.38;;;12.93;;
79646;SDS011;69119;41.718;21.786;2023-04-30T05:06:38;15.93;;;12.52;;
79646;SDS011;69119;41.718;21.786;2023-04-30T05:09:05;14.70;;;11.43;;
79646;SDS011;69119;41.718;21.786;2023-04-30T05:11:33;14.60;;;10.73;;
79646;SDS011;69119;41.718;21.786;2023-04-30T05:14:00;13.80;;;10.52;;
79646;SDS011;69119;41.718;21.786;2023-04-30T05:16:26;15.90;;;12.13;;
79646;SDS011;69119;41.718;21.786;2023-04-30T05:18:52;15.77;;;11.65;;
79646;SDS011;69119;41.718;21.786;2023-04-30T05:21:18;13.23;;;10.77;;
79646;SDS011;69119;41.718;21.786;2023-04-30T05:23:45;15.30;;;10.32;;
79646;SDS011;69119;41.718;21.786;2023-04-30T05:26:11;12.13;;;9.13;;
79646;SDS011;69119;41.718;21.786;2023-04-30T05:28:37;13.10;;;9.35;;
79646;SDS011;69119;41.718;21.786;2023-04-30T05:31:04;14.85;;;10.43;;
79646;SDS011;69119;41.718;21.786;2023-04-30T05:33:30;10.88;;;7.82;;
79646;SDS011;69119;41.718;21.786;2023-04-30T05:35:56;13.43;;;8.85;;
79646;SDS011;69119;41.718;21.786;2023-04-30T05:38:22;13.48;;;8.80;;
79646;SDS011;69119;41.718;21.786;2023-04-30T05:40:48;10.88;;;7.05;;
79646;SDS011;69119;41.718;21.786;2023-04-30T05:43:14;12.43;;;8.63;;
79646;SDS011;69119;41.718;21.786;2023-04-30T05:45:40;11.70;;;8.68;;
79646;SDS011;69119;41.718;21.786;2023-04-30T05:48:06;12.50;;;8.13;;
79646;SDS011;69119;41.718;21.786;2023-04-30T05:50:32;12.88;;;9.70;;
79646;SDS011;69119;41.718;21.786;2023-04-30T05:52:58;12.20;;;9.50;;
79646;SDS011;69119;41.718;21.786;2023-04-30T05:55:24;12.23;;;9.88;;
79646;SDS011;69119;41.718;21.786;2023-04-30T05:57:50;13.98;;;9.90;;
79646;SDS011;69119;41.718;21.786;2023-04-30T06:00:16;15.93;;;9.88;;
79646;SDS011;69119;41.718;21.786;2023-04-30T06:02:42;13.35;;;10.45;;
79646;SDS011;69119;41.718;21.786;2023-04-30T06:05:08;15.73;;;10.02;;
79646;SDS011;69119;41.718;21.786;2023-04-30T06:07:35;12.98;;;9.68;;
79646;SDS011;69119;41.718;21.786;2023-04-30T06:10:01;14.32;;;9.98;;
79646;SDS011;69119;41.718;21.786;2023-04-30T06:12:27;14.45;;;10.90;;
79646;SDS011;69119;41.718;21.786;2023-04-30T06:14:54;12.43;;;9.32;;
79646;SDS011;69119;41.718;21.786;2023-04-30T06:17:20;13.65;;;9.23;;
79646;SDS011;69119;41.718;21.786;2023-04-30T06:19:46;13.77;;;8.77;;
79646;SDS011;69119;41.718;21.786;2023-04-30T06:22:12;13.95;;;9.05;;
79646;SDS011;69119;41.718;21.786;2023-04-30T06:24:38;12.48;;;8.90;;
79646;SDS011;69119;41.718;21.786;2023-04-30T06:27:04;12.52;;;6.90;;
79646;SDS011;69119;41.718;21.786;2023-04-30T06:29:30;15.35;;;10.18;;
79646;SDS011;69119;41.718;21.786;2023-04-30T06:31:56;14.93;;;8.85;;
79646;SDS011;69119;41.718;21.786;2023-04-30T06:34:22;14.63;;;9.77;;
79646;SDS011;69119;41.718;21.786;2023-04-30T06:36:48;13.25;;;8.90;;
79646;SDS011;69119;41.718;21.786;2023-04-30T06:39:14;12.52;;;9.45;;
79646;SDS011;69119;41.718;21.786;2023-04-30T06:41:41;14.45;;;9.32;;
79646;SDS011;69119;41.718;21.786;2023-04-30T06:44:07;13.27;;;9.50;;
79646;SDS011;69119;41.718;21.786;2023-04-30T06:46:33;15.23;;;9.45;;
79646;SDS011;69119;41.718;21.786;2023-04-30T06:48:59;12.85;;;7.90;;
79646;SDS011;69119;41.718;21.786;2023-04-30T06:51:25;11.80;;;8.15;;
79646;SDS011;69119;41.718;21.786;2023-04-30T06:53:51;15.98;;;10.02;;
79646;SDS011;69119;41.718;21.786;2023-04-30T06:56:18;14.23;;;10.15;;
79646;SDS011;69119;41.718;21.786;2023-04-30T06:58:45;11.68;;;6.75;;
79646;SDS011;69119;41.718;21.786;2023-04-30T07:01:12;16.30;;;10.07;;
79646;SDS011;69119;41.718;21.786;2023-04-30T07:03:38;14.45;;;9.48;;
79646;SDS011;69119;41.718;21.786;2023-04-30T07:06:04;14.30;;;10.60;;
79646;SDS011;69119;41.718;21.786;2023-04-30T07:08:30;13.85;;;10.80;;
79646;SDS011;69119;41.718;21.786;2023-04-30T07:13:22;15.02;;;11.07;;
79646;SDS011;69119;41.718;21.786;2023-04-30T07:15:48;14.85;;;10.38;;
79646;SDS011;69119;41.718;21.786;2023-04-30T07:18:15;13.95;;;10.77;;
79646;SDS011;69119;41.718;21.786;2023-04-30T07:20:41;13.35;;;9.07;;
79646;SDS011;69119;41.718;21.786;2023-04-30T07:25:33;10.98;;;8.52;;
79646;SDS011;69119;41.718;21.786;2023-04-30T07:30:25;10.60;;;7.40;;
79646;SDS011;69119;41.718;21.786;2023-04-30T07:35:17;11.93;;;8.93;;
79646;SDS011;69119;41.718;21.786;2023-04-30T07:37:43;10.63;;;7.15;;
79646;SDS011;69119;41.718;21.786;2023-04-30T07:42:41;11.25;;;8.07;;
79646;SDS011;69119;41.718;21.786;2023-04-30T07:45:09;13.77;;;10.20;;
79646;SDS011;69119;41.718;21.786;2023-04-30T07:47:35;13.23;;;10.25;;
79646;SDS011;69119;41.718;21.786;2023-04-30T07:52:27;11.15;;;8.50;;
79646;SDS011;69119;41.718;21.786;2023-04-30T07:54:53;11.50;;;7.88;;
79646;SDS011;69119;41.718;21.786;2023-04-30T07:57:19;12.40;;;8.63;;
79646;SDS011;69119;41.718;21.786;2023-04-30T07:59:45;11.07;;;7.85;;
79646;SDS011;69119;41.718;21.786;2023-04-30T08:02:11;11.75;;;9.02;;
79646;SDS011;69119;41.718;21.786;2023-04-30T08:07:03;12.40;;;5.90;;
79646;SDS011;69119;41.718;21.786;2023-04-30T08:11:55;12.95;;;7.90;;
79646;SDS011;69119;41.718;21.786;2023-04-30T08:16:47;11.88;;;7.60;;
79646;SDS011;69119;41.718;21.786;2023-04-30T08:21:39;9.88;;;6.95;;
79646;SDS011;69119;41.718;21.786;2023-04-30T08:24:06;12.60;;;8.07;;
79646;SDS011;69119;41.718;21.786;2023-04-30T08:26:32;13.95;;;8.07;;
79646;SDS011;69119;41.718;21.786;2023-04-30T08:28:58;11.25;;;7.43;;
79646;SDS011;69119;41.718;21.786;2023-04-30T08:31:24;12.13;;;8.75;;
79646;SDS011;69119;41.718;21.786;2023-04-30T08:33:50;14.23;;;8.40;;
79646;SDS011;69119;41.718;21.786;2023-04-30T08:36:16;13.23;;;8.52;;
79646;SDS011;69119;41.718;21.786;2023-04-30T08:38:42;11.27;;;7.32;;
79646;SDS011;69119;41.718;21.786;2023-04-30T08:41:10;10.45;;;6.90;;
79646;SDS011;69119;41.718;21.786;2023-04-30T08:43:37;10.85;;;7.32;;
79646;SDS011;69119;41.718;21.786;2023-04-30T08:46:03;12.35;;;8.05;;
79646;SDS011;69119;41.718;21.786;2023-04-30T08:48:30;12.25;;;7.22;;
79646;SDS011;69119;41.718;21.786;2023-04-30T08:51:00;16.50;;;7.38;;
79646;SDS011;69119;41.718;21.786;2023-04-30T08:53:26;10.52;;;7.00;;
79646;SDS011;69119;41.718;21.786;2023-04-30T08:55:52;11.50;;;6.47;;
79646;SDS011;69119;41.718;21.786;2023-04-30T08:58:18;11.73;;;8.80;;
79646;SDS011;69119;41.718;21.786;2023-04-30T09:00:45;10.85;;;6.07;;
79646;SDS011;69119;41.718;21.786;2023-04-30T09:03:11;9.57;;;7.18;;
79646;SDS011;69119;41.718;21.786;2023-04-30T09:05:37;9.85;;;6.60;;
79646;SDS011;69119;41.718;21.786;2023-04-30T09:08:03;12.63;;;7.45;;
79646;SDS011;69119;41.718;21.786;2023-04-30T09:10:32;10.05;;;6.28;;
79646;SDS011;69119;41.718;21.786;2023-04-30T09:15:25;8.85;;;5.70;;
79646;SDS011;69119;41.718;21.786;2023-04-30T09:18:10;9.23;;;5.32;;
79646;SDS011;69119;41.718;21.786;2023-04-30T09:20:37;11.40;;;5.63;;
79646;SDS011;69119;41.718;21.786;2023-04-30T09:23:07;8.88;;;6.07;;
79646;SDS011;69119;41.718;21.786;2023-04-30T09:25:40;9.18;;;5.45;;
79646;SDS011;69119;41.718;21.786;2023-04-30T09:28:15;9.32;;;6.15;;
79646;SDS011;69119;41.718;21.786;2023-04-30T09:30:41;9.70;;;6.45;;
79646;SDS011;69119;41.718;21.786;2023-04-30T09:33:07;9.98;;;6.82;;
79646;SDS011;69119;41.718;21.786;2023-04-30T09:35:34;9.63;;;6.40;;
79646;SDS011;69119;41.718;21.786;2023-04-30T09:38:01;10.02;;;6.00;;
79646;SDS011;69119;41.718;21.786;2023-04-30T09:43:00;12.15;;;6.45;;
79646;SDS011;69119;41.718;21.786;2023-04-30T09:45:26;11.80;;;6.68;;
79646;SDS011;69119;41.718;21.786;2023-04-30T09:47:52;11.18;;;6.53;;
79646;SDS011;69119;41.718;21.786;2023-04-30T09:50:18;10.93;;;6.30;;
79646;SDS011;69119;41.718;21.786;2023-04-30T09:52:50;8.77;;;5.60;;
79646;SDS011;69119;41.718;21.786;2023-04-30T09:55:17;9.40;;;5.30;;
79646;SDS011;69119;41.718;21.786;2023-04-30T09:57:43;11.20;;;5.45;;
79646;SDS011;69119;41.718;21.786;2023-04-30T10:00:09;9.70;;;5.53;;
79646;SDS011;69119;41.718;21.786;2023-04-30T10:02:35;8.38;;;5.57;;
79646;SDS011;69119;41.718;21.786;2023-04-30T10:05:02;9.98;;;5.55;;
79646;SDS011;69119;41.718;21.786;2023-04-30T10:07:30;8.52;;;5.50;;
79646;SDS011;69119;41.718;21.786;2023-04-30T10:09:58;10.02;;;4.63;;
79646;SDS011;69119;41.718;21.786;2023-04-30T10:12:37;7.93;;;5.00;;
79646;SDS011;69119;41.718;21.786;2023-04-30T10:15:14;9.57;;;6.07;;
79646;SDS011;69119;41.718;21.786;2023-04-30T10:17:42;7.50;;;5.40;;
79646;SDS011;69119;41.718;21.786;2023-04-30T10:20:10;12.05;;;6.88;;
79646;SDS011;69119;41.718;21.786;2023-04-30T10:22:37;9.68;;;6.57;;
79646;SDS011;69119;41.718;21.786;2023-04-30T10:25:05;10.25;;;6.93;;
79646;SDS011;69119;41.718;21.786;2023-04-30T10:27:35;7.38;;;5.22;;
79646;SDS011;69119;41.718;21.786;2023-04-30T10:32:29;8.10;;;4.80;;
79646;SDS011;69119;41.718;21.786;2023-04-30T10:35:07;9.50;;;6.13;;
79646;SDS011;69119;41.718;21.786;2023-04-30T10:37:36;8.68;;;6.32;;
79646;SDS011;69119;41.718;21.786;2023-04-30T10:40:04;9.10;;;6.03;;
79646;SDS011;69119;41.718;21.786;2023-04-30T10:42:33;10.45;;;5.00;;
79646;SDS011;69119;41.718;21.786;2023-04-30T10:45:00;10.32;;;5.95;;
79646;SDS011;69119;41.718;21.786;2023-04-30T10:47:28;9.30;;;5.78;;
79646;SDS011;69119;41.718;21.786;2023-04-30T10:50:01;10.32;;;6.93;;
79646;SDS011;69119;41.718;21.786;2023-04-30T10:52:28;10.57;;;5.57;;
79646;SDS011;69119;41.718;21.786;2023-04-30T10:54:54;12.10;;;6.07;;
79646;SDS011;69119;41.718;21.786;2023-04-30T10:57:20;9.98;;;5.78;;
79646;SDS011;69119;41.718;21.786;2023-04-30T10:59:51;9.13;;;5.43;;
79646;SDS011;69119;41.718;21.786;2023-04-30T11:02:17;8.43;;;4.90;;
79646;SDS011;69119;41.718;21.786;2023-04-30T11:07:28;9.07;;;5.15;;
79646;SDS011;69119;41.718;21.786;2023-04-30T11:12:20;8.07;;;4.57;;
79646;SDS011;69119;41.718;21.786;2023-04-30T11:14:54;8.75;;;4.70;;
79646;SDS011;69119;41.718;21.786;2023-04-30T11:17:23;9.80;;;5.40;;
79646;SDS011;69119;41.718;21.786;2023-04-30T11:19:50;7.60;;;4.07;;
79646;SDS011;69119;41.718;21.786;2023-04-30T11:27:27;8.57;;;5.18;;
79646;SDS011;69119;41.718;21.786;2023-04-30T11:29:54;11.32;;;6.70;;
79646;SDS011;69119;41.718;21.786;2023-04-30T11:32:20;9.90;;;5.90;;
79646;SDS011;69119;41.718;21.786;2023-04-30T11:34:47;9.95;;;5.55;;
79646;SDS011;69119;41.718;21.786;2023-04-30T11:37:18;8.75;;;5.07;;
79646;SDS011;69119;41.718;21.786;2023-04-30T11:39:45;8.98;;;5.90;;
79646;SDS011;69119;41.718;21.786;2023-04-30T11:42:18;10.65;;;5.47;;
79646;SDS011;69119;41.718;21.786;2023-04-30T11:44:44;8.07;;;5.35;;
79646;SDS011;69119;41.718;21.786;2023-04-30T11:47:13;8.32;;;3.22;;
79646;SDS011;69119;41.718;21.786;2023-04-30T11:49:40;7.82;;;4.05;;
79646;SDS011;69119;41.718;21.786;2023-04-30T11:52:06;6.53;;;3.63;;
79646;SDS011;69119;41.718;21.786;2023-04-30T11:54:36;9.80;;;4.88;;
79646;SDS011;69119;41.718;21.786;2023-04-30T11:57:03;7.47;;;3.95;;
79646;SDS011;69119;41.718;21.786;2023-04-30T11:59:30;10.20;;;5.45;;
79646;SDS011;69119;41.718;21.786;2023-04-30T12:01:56;8.70;;;3.50;;
79646;SDS011;69119;41.718;21.786;2023-04-30T12:04:22;8.57;;;4.72;;
79646;SDS011;69119;41.718;21.786;2023-04-30T12:06:48;7.25;;;4.38;;
79646;SDS011;69119;41.718;21.786;2023-04-30T12:09:15;6.53;;;3.70;;
79646;SDS011;69119;41.718;21.786;2023-04-30T12:14:10;8.40;;;4.40;;
79646;SDS011;69119;41.718;21.786;2023-04-30T12:16:42;7.35;;;4.40;;
79646;SDS011;69119;41.718;21.786;2023-04-30T12:19:09;6.97;;;5.57;;
79646;SDS011;69119;41.718;21.786;2023-04-30T12:21:36;7.38;;;4.78;;
79646;SDS011;69119;41.718;21.786;2023-04-30T12:24:03;6.50;;;3.80;;
79646;SDS011;69119;41.718;21.786;2023-04-30T12:26:35;5.38;;;3.40;;
79646;SDS011;69119;41.718;21.786;2023-04-30T12:29:13;7.15;;;5.05;;
79646;SDS011;69119;41.718;21.786;2023-04-30T12:31:40;5.38;;;3.03;;
79646;SDS011;69119;41.718;21.786;2023-04-30T12:34:06;7.25;;;4.20;;
79646;SDS011;69119;41.718;21.786;2023-04-30T12:36:33;7.45;;;5.05;;
79646;SDS011;69119;41.718;21.786;2023-04-30T12:39:10;8.10;;;5.80;;
79646;SDS011;69119;41.718;21.786;2023-04-30T12:41:46;6.47;;;4.30;;
79646;SDS011;69119;41.718;21.786;2023-04-30T12:46:39;8.63;;;3.50;;
79646;SDS011;69119;41.718;21.786;2023-04-30T12:49:05;7.20;;;4.93;;
79646;SDS011;69119;41.718;21.786;2023-04-30T12:51:34;7.25;;;4.63;;
79646;SDS011;69119;41.718;21.786;2023-04-30T12:54:00;6.82;;;4.03;;
79646;SDS011;69119;41.718;21.786;2023-04-30T12:56:27;7.13;;;4.90;;
79646;SDS011;69119;41.718;21.786;2023-04-30T12:58:53;6.40;;;4.90;;
79646;SDS011;69119;41.718;21.786;2023-04-30T13:01:19;7.47;;;5.55;;
79646;SDS011;69119;41.718;21.786;2023-04-30T13:03:47;7.47;;;5.18;;
79646;SDS011;69119;41.718;21.786;2023-04-30T13:06:14;8.00;;;7.03;;
79646;SDS011;69119;41.718;21.786;2023-04-30T13:11:06;6.90;;;5.63;;
79646;SDS011;69119;41.718;21.786;2023-04-30T13:13:32;6.40;;;4.72;;
79646;SDS011;69119;41.718;21.786;2023-04-30T13:15:58;6.40;;;5.13;;
79646;SDS011;69119;41.718;21.786;2023-04-30T13:18:24;6.70;;;4.95;;
79646;SDS011;69119;41.718;21.786;2023-04-30T13:20:50;7.13;;;5.22;;
79646;SDS011;69119;41.718;21.786;2023-04-30T13:23:16;6.72;;;4.00;;
79646;SDS011;69119;41.718;21.786;2023-04-30T13:25:43;6.82;;;4.82;;
79646;SDS011;69119;41.718;21.786;2023-04-30T13:28:09;6.72;;;4.95;;
79646;SDS011;69119;41.718;21.786;2023-04-30T13:30:35;8.20;;;5.18;;
79646;SDS011;69119;41.718;21.786;2023-04-30T13:33:01;7.03;;;4.88;;
79646;SDS011;69119;41.718;21.786;2023-04-30T13:35:28;7.18;;;5.40;;
79646;SDS011;69119;41.718;21.786;2023-04-30T13:37:54;6.75;;;4.75;;
79646;SDS011;69119;41.718;21.786;2023-04-30T13:40:21;7.65;;;5.13;;
79646;SDS011;69119;41.718;21.786;2023-04-30T13:42:47;6.45;;;4.82;;
79646;SDS011;69119;41.718;21.786;2023-04-30T13:45:13;7.28;;;5.03;;
79646;SDS011;69119;41.718;21.786;2023-04-30T13:47:40;9.35;;;5.55;;
79646;SDS011;69119;41.718;21.786;2023-04-30T13:50:06;8.77;;;5.30;;
79646;SDS011;69119;41.718;21.786;2023-04-30T13:52:33;10.38;;;5.53;;
79646;SDS011;69119;41.718;21.786;2023-04-30T13:57:25;6.75;;;4.60;;
79646;SDS011;69119;41.718;21.786;2023-04-30T13:59:54;7.45;;;5.95;;
79646;SDS011;69119;41.718;21.786;2023-04-30T14:04:46;6.88;;;5.53;;
79646;SDS011;69119;41.718;21.786;2023-04-30T14:07:12;7.72;;;5.45;;
79646;SDS011;69119;41.718;21.786;2023-04-30T14:12:04;9.10;;;6.90;;
79646;SDS011;69119;41.718;21.786;2023-04-30T14:14:30;10.15;;;7.72;;
79646;SDS011;69119;41.718;21.786;2023-04-30T14:16:56;10.13;;;7.63;;
79646;SDS011;69119;41.718;21.786;2023-04-30T14:19:23;8.95;;;6.95;;
79646;SDS011;69119;41.718;21.786;2023-04-30T14:21:49;8.43;;;7.10;;
79646;SDS011;69119;41.718;21.786;2023-04-30T14:24:15;8.68;;;6.95;;
79646;SDS011;69119;41.718;21.786;2023-04-30T14:26:42;11.13;;;7.43;;
79646;SDS011;69119;41.718;21.786;2023-04-30T14:29:09;9.75;;;7.18;;
79646;SDS011;69119;41.718;21.786;2023-04-30T14:31:35;12.07;;;9.02;;
79646;SDS011;69119;41.718;21.786;2023-04-30T14:34:01;10.00;;;7.03;;
79646;SDS011;69119;41.718;21.786;2023-04-30T14:38:53;9.45;;;6.60;;
79646;SDS011;69119;41.718;21.786;2023-04-30T14:41:19;9.80;;;6.80;;
79646;SDS011;69119;41.718;21.786;2023-04-30T14:43:46;9.88;;;6.82;;
79646;SDS011;69119;41.718;21.786;2023-04-30T14:46:12;9.38;;;6.85;;
79646;SDS011;69119;41.718;21.786;2023-04-30T14:48:38;10.25;;;8.45;;
79646;SDS011;69119;41.718;21.786;2023-04-30T14:51:04;10.05;;;8.75;;
79646;SDS011;69119;41.718;21.786;2023-04-30T14:53:30;10.80;;;7.53;;
79646;SDS011;69119;41.718;21.786;2023-04-30T14:55:57;12.52;;;9.30;;
79646;SDS011;69119;41.718;21.786;2023-04-30T14:58:23;9.57;;;7.30;;
79646;SDS011;69119;41.718;21.786;2023-04-30T15:03:15;19.33;;;13.95;;
79646;SDS011;69119;41.718;21.786;2023-04-30T15:05:41;13.27;;;9.60;;
79646;SDS011;69119;41.718;21.786;2023-04-30T15:10:34;10.88;;;8.02;;
79646;SDS011;69119;41.718;21.786;2023-04-30T15:13:03;7.80;;;5.43;;
79646;SDS011;69119;41.718;21.786;2023-04-30T15:15:29;10.05;;;6.20;;
79646;SDS011;69119;41.718;21.786;2023-04-30T15:20:22;9.45;;;6.75;;
79646;SDS011;69119;41.718;21.786;2023-04-30T15:22:51;9.10;;;5.95;;
79646;SDS011;69119;41.718;21.786;2023-04-30T15:25:19;9.70;;;6.95;;
79646;SDS011;69119;41.718;21.786;2023-04-30T15:27:45;8.10;;;6.32;;
79646;SDS011;69119;41.718;21.786;2023-04-30T15:30:11;9.75;;;7.28;;
79646;SDS011;69119;41.718;21.786;2023-04-30T15:32:38;7.43;;;5.38;;
79646;SDS011;69119;41.718;21.786;2023-04-30T15:35:04;9.82;;;6.80;;
79646;SDS011;69119;41.718;21.786;2023-04-30T15:37:31;7.95;;;5.70;;
79646;SDS011;69119;41.718;21.786;2023-04-30T15:39:58;8.32;;;5.82;;
79646;SDS011;69119;41.718;21.786;2023-04-30T15:42:25;8.38;;;4.88;;
79646;SDS011;69119;41.718;21.786;2023-04-30T15:44:51;8.13;;;5.10;;
79646;SDS011;69119;41.718;21.786;2023-04-30T15:47:17;7.70;;;5.10;;